createdAt,value
2018-06-25T00:02:07.427Z,20.20
2018-06-25T00:04:35.574Z,20.20
2018-06-25T00:07:03.696Z,20.30
2018-06-25T00:09:31.896Z,20.20
2018-06-25T00:12:00.097Z,20.30
2018-06-25T00:14:28.263Z,20.20
2018-06-25T00:16:56.323Z,20.10
2018-06-25T00:19:24.450Z,20.30
2018-06-25T00:21:52.585Z,20.20
2018-06-25T00:24:20.790Z,20.20
2018-06-25T00:26:48.898Z,20.20
2018-06-25T00:29:17.079Z,20.10
2018-06-25T00:31:45.222Z,19.90
2018-06-25T00:34:13.356Z,20.00
2018-06-25T00:36:41.484Z,20.00
2018-06-25T00:39:10.864Z,20.00
2018-06-25T00:41:39.051Z,19.90
2018-06-25T00:44:07.291Z,20.10
2018-06-25T00:46:35.449Z,20.10
2018-06-25T00:49:03.571Z,20.00
2018-06-25T00:51:31.697Z,19.80
2018-06-25T00:53:59.866Z,19.60
2018-06-25T00:56:27.981Z,19.60
2018-06-25T00:59:07.719Z,19.70
2018-06-25T01:01:36.392Z,19.70
2018-06-25T01:04:04.517Z,19.70
2018-06-25T01:06:32.643Z,19.90
2018-06-25T01:09:00.831Z,20.00
2018-06-25T01:11:29.261Z,20.00
2018-06-25T01:13:57.381Z,20.10
2018-06-25T01:16:25.499Z,19.80
2018-06-25T01:18:54.536Z,19.90
2018-06-25T01:21:22.680Z,20.10
2018-06-25T01:23:50.780Z,20.00
2018-06-25T01:26:18.891Z,19.90
2018-06-25T01:28:47.010Z,19.90
2018-06-25T01:31:15.225Z,20.00
2018-06-25T01:33:43.347Z,20.10
2018-06-25T01:36:11.470Z,19.90
2018-06-25T01:38:39.609Z,20.00
2018-06-25T01:41:07.733Z,20.10
2018-06-25T01:43:35.841Z,19.90
2018-06-25T01:46:04.221Z,19.90
2018-06-25T01:48:32.341Z,20.00
2018-06-25T01:51:00.477Z,20.00
2018-06-25T01:53:28.597Z,20.00
2018-06-25T01:55:56.715Z,19.90
2018-06-25T01:58:25.981Z,19.90
2018-06-25T02:00:54.238Z,19.90
2018-06-25T02:03:22.364Z,19.90
2018-06-25T02:05:51.365Z,19.80
2018-06-25T02:08:19.487Z,19.60
2018-06-25T02:10:47.632Z,19.30
2018-06-25T02:13:15.743Z,19.30
2018-06-25T02:15:43.876Z,19.40
2018-06-25T02:18:11.996Z,19.30
2018-06-25T02:20:40.116Z,19.40
2018-06-25T02:23:08.282Z,19.50
2018-06-25T02:25:36.417Z,19.60
2018-06-25T02:28:04.563Z,19.60
2018-06-25T02:30:32.679Z,19.60
2018-06-25T02:35:28.700Z,19.70
2018-06-25T02:37:56.880Z,19.80
2018-06-25T02:40:25.001Z,19.60
2018-06-25T02:42:53.139Z,19.50
2018-06-25T02:45:21.284Z,19.50
2018-06-25T02:47:50.163Z,19.50
2018-06-25T02:50:18.291Z,19.50
2018-06-25T02:52:46.412Z,19.50
2018-06-25T02:55:14.789Z,19.50
2018-06-25T02:57:42.970Z,19.50
2018-06-25T03:00:11.119Z,19.40
2018-06-25T03:02:39.264Z,19.50
2018-06-25T03:05:07.376Z,19.50
2018-06-25T03:07:35.527Z,19.60
2018-06-25T03:10:03.678Z,19.60
2018-06-25T03:12:31.910Z,19.60
2018-06-25T03:15:00.067Z,19.60
2018-06-25T03:17:28.198Z,19.50
2018-06-25T03:19:56.337Z,19.50
2018-06-25T03:22:24.448Z,19.60
2018-06-25T03:24:52.597Z,19.50
2018-06-25T03:27:20.753Z,19.50
2018-06-25T03:29:48.867Z,19.50
2018-06-25T03:32:17.020Z,19.50
2018-06-25T03:34:45.156Z,19.40
2018-06-25T03:37:13.285Z,19.30
2018-06-25T03:39:41.417Z,19.30
2018-06-25T03:42:09.542Z,19.50
2018-06-25T03:44:37.700Z,19.60
2018-06-25T03:47:06.314Z,19.60
2018-06-25T03:49:34.436Z,19.60
2018-06-25T03:52:02.563Z,19.60
2018-06-25T03:54:37.279Z,19.60
2018-06-25T03:57:06.297Z,19.60
2018-06-25T03:59:34.425Z,19.70
2018-06-25T04:04:30.564Z,19.40
2018-06-25T04:06:58.784Z,19.60
2018-06-25T04:09:26.901Z,19.60
2018-06-25T04:11:55.561Z,19.60
2018-06-25T04:14:23.690Z,19.60
2018-06-25T04:16:52.304Z,19.60
2018-06-25T04:19:20.439Z,19.60
2018-06-25T04:21:48.649Z,19.70
2018-06-25T04:24:16.793Z,19.60
2018-06-25T04:26:44.925Z,19.30
2018-06-25T04:29:13.044Z,19.40
2018-06-25T04:31:41.180Z,19.60
2018-06-25T04:34:09.800Z,19.60
2018-06-25T04:36:37.932Z,19.60
2018-06-25T04:39:07.968Z,19.70
2018-06-25T04:41:36.093Z,19.80
2018-06-25T04:44:04.202Z,19.70
2018-06-25T04:46:32.497Z,19.70
2018-06-25T04:49:01.255Z,19.70
2018-06-25T04:51:29.379Z,19.70
2018-06-25T04:53:57.496Z,19.70
2018-06-25T04:56:25.647Z,19.80
2018-06-25T04:58:53.780Z,19.90
2018-06-25T05:03:49.804Z,19.80
2018-06-25T05:06:17.987Z,19.70
2018-06-25T05:08:46.133Z,19.70
2018-06-25T05:11:14.216Z,19.70
2018-06-25T05:13:43.348Z,19.90
2018-06-25T05:16:11.492Z,19.90
2018-06-25T05:18:39.612Z,19.90
2018-06-25T05:21:07.726Z,19.90
2018-06-25T05:23:35.861Z,19.70
2018-06-25T05:26:03.940Z,19.60
2018-06-25T05:28:32.061Z,19.90
2018-06-25T05:31:00.244Z,19.80
2018-06-25T05:33:28.363Z,19.80
2018-06-25T05:35:56.459Z,20.00
2018-06-25T05:38:24.567Z,20.10
2018-06-25T05:40:52.689Z,20.10
2018-06-25T05:43:20.952Z,20.00
2018-06-25T05:45:49.735Z,20.10
2018-06-25T05:48:17.855Z,20.10
2018-06-25T05:50:46.957Z,20.00
2018-06-25T05:53:15.099Z,20.20
2018-06-25T05:55:43.196Z,20.30
2018-06-25T05:58:11.319Z,20.20
2018-06-25T06:00:39.443Z,20.10
2018-06-25T06:03:07.600Z,20.30
2018-06-25T06:05:35.712Z,20.30
2018-06-25T06:08:03.820Z,20.30
2018-06-25T06:10:31.937Z,20.40
2018-06-25T06:13:00.180Z,20.50
2018-06-25T06:15:28.307Z,20.50
2018-06-25T06:17:56.421Z,20.50
2018-06-25T06:20:24.577Z,20.50
2018-06-25T06:22:52.749Z,20.50
2018-06-25T06:25:20.905Z,20.60
2018-06-25T06:27:49.019Z,20.70
2018-06-25T06:30:18.901Z,20.70
2018-06-25T06:32:47.185Z,20.80
2018-06-25T06:35:25.414Z,20.80
2018-06-25T06:40:44.017Z,20.70
2018-06-25T06:43:12.128Z,20.70
2018-06-25T06:45:40.259Z,20.70
2018-06-25T06:48:09.163Z,20.80
2018-06-25T06:50:37.292Z,20.80
2018-06-25T06:53:05.400Z,20.90
2018-06-25T06:55:34.120Z,20.90
2018-06-25T06:58:02.232Z,21.00
2018-06-25T07:00:30.352Z,21.00
2018-06-25T07:02:58.484Z,20.90
2018-06-25T07:05:27.450Z,21.20
2018-06-25T07:07:55.530Z,21.40
2018-06-25T07:10:23.826Z,21.60
2018-06-25T07:12:51.885Z,21.70
2018-06-25T07:15:19.997Z,21.90
2018-06-25T07:17:48.108Z,21.90
2018-06-25T07:20:16.282Z,21.90
2018-06-25T07:22:45.144Z,21.80
2018-06-25T07:25:13.264Z,21.70
2018-06-25T07:27:41.549Z,21.80
2018-06-25T07:30:09.801Z,22.00
2018-06-25T07:32:37.900Z,21.90
2018-06-25T07:35:06.711Z,21.90
2018-06-25T07:37:34.829Z,21.80
2018-06-25T07:40:04.015Z,21.80
2018-06-25T07:42:32.515Z,21.80
2018-06-25T07:45:01.445Z,21.80
2018-06-25T07:47:32.517Z,22.10
2018-06-25T07:50:17.003Z,22.30
2018-06-25T07:52:52.941Z,22.40
2018-06-25T07:56:25.890Z,22.40
2018-06-25T07:59:00.608Z,22.40
2018-06-25T08:01:31.331Z,22.00
2018-06-25T08:07:43.040Z,21.90
2018-06-25T08:10:11.215Z,21.50
2018-06-25T08:12:39.275Z,21.60
2018-06-25T08:15:07.424Z,21.80
2018-06-25T08:17:35.794Z,21.90
2018-06-25T08:20:04.365Z,22.10
2018-06-25T08:22:33.264Z,22.10
2018-06-25T08:25:01.366Z,22.10
2018-06-25T08:27:29.492Z,22.20
2018-06-25T08:29:57.646Z,22.30
2018-06-25T08:32:25.739Z,22.30
2018-06-25T08:34:53.857Z,22.40
2018-06-25T08:37:22.003Z,22.40
2018-06-25T08:39:50.124Z,22.30
2018-06-25T08:42:18.268Z,22.50
2018-06-25T08:44:46.368Z,22.80
2018-06-25T08:47:14.492Z,23.20
2018-06-25T08:49:42.611Z,23.80
2018-06-25T08:52:10.717Z,24.80
2018-06-25T08:54:38.839Z,25.70
2018-06-25T08:57:06.962Z,26.40
2018-06-25T08:59:35.089Z,27.10
2018-06-25T09:02:03.731Z,27.90
2018-06-25T09:04:31.935Z,28.50
2018-06-25T09:06:59.993Z,28.10
2018-06-25T09:09:28.159Z,27.50
2018-06-25T09:11:56.249Z,27.30
2018-06-25T09:14:24.435Z,26.90
2018-06-25T09:16:52.566Z,26.90
2018-06-25T09:19:20.693Z,27.70
2018-06-25T09:21:48.816Z,28.30
2018-06-25T09:24:16.991Z,28.30
2018-06-25T09:26:45.133Z,27.90
2018-06-25T09:29:13.248Z,27.00
2018-06-25T09:31:41.351Z,26.70
2018-06-25T09:34:14.913Z,26.50
2018-06-25T09:36:43.085Z,26.30
2018-06-25T09:39:12.352Z,26.00
2018-06-25T09:41:40.716Z,26.00
2018-06-25T09:44:09.516Z,26.00
2018-06-25T09:46:37.613Z,26.00
2018-06-25T09:49:05.792Z,25.60
2018-06-25T09:54:01.885Z,24.80
2018-06-25T09:56:30.056Z,24.80
2018-06-25T09:58:58.204Z,24.70
2018-06-25T10:01:26.836Z,24.90
2018-06-25T10:03:54.969Z,25.20
2018-06-25T10:06:23.161Z,25.50
2018-06-25T10:08:51.296Z,25.50
2018-06-25T10:11:19.717Z,25.60
2018-06-25T10:13:47.850Z,25.60
2018-06-25T10:16:15.963Z,25.70
2018-06-25T10:18:44.104Z,25.60
2018-06-25T10:21:12.302Z,25.70
2018-06-25T10:23:40.408Z,25.40
2018-06-25T10:26:08.819Z,25.20
2018-06-25T10:28:37.278Z,25.00
2018-06-25T10:31:05.453Z,24.90
2018-06-25T10:33:33.610Z,24.80
2018-06-25T10:36:01.743Z,24.90
2018-06-25T10:38:29.869Z,25.00
2018-06-25T10:40:58.026Z,25.00
2018-06-25T10:43:26.356Z,25.50
2018-06-25T10:45:54.499Z,25.90
2018-06-25T10:48:22.630Z,26.50
2018-06-25T10:50:50.760Z,27.00
2018-06-25T10:53:19.371Z,27.00
2018-06-25T10:55:47.583Z,27.20
2018-06-25T10:58:15.689Z,27.20
2018-06-25T11:03:11.788Z,27.80
2018-06-25T11:05:39.894Z,28.00
2018-06-25T11:08:08.014Z,27.90
2018-06-25T11:10:36.137Z,28.50
2018-06-25T11:13:04.536Z,29.40
2018-06-25T11:18:07.196Z,31.00
2018-06-25T11:20:35.425Z,31.80
2018-06-25T11:23:03.695Z,32.30
2018-06-25T11:25:31.830Z,32.00
2018-06-25T11:28:00.614Z,31.20
2018-06-25T11:30:28.727Z,30.30
2018-06-25T11:32:56.952Z,29.70
2018-06-25T11:35:25.281Z,29.20
2018-06-25T11:37:53.389Z,29.00
2018-06-25T11:40:21.498Z,28.70
2018-06-25T11:42:49.607Z,28.50
2018-06-25T11:45:17.714Z,28.50
2018-06-25T11:47:45.968Z,28.80
2018-06-25T11:50:14.187Z,29.20
2018-06-25T11:52:42.317Z,30.00
2018-06-25T11:55:10.432Z,30.60
2018-06-25T11:57:38.984Z,30.60
2018-06-25T12:00:07.664Z,30.40
2018-06-25T12:02:36.092Z,29.70
2018-06-25T12:05:04.213Z,29.10
2018-06-25T12:07:32.287Z,28.70
2018-06-25T12:10:00.404Z,28.60
2018-06-25T12:12:28.591Z,28.40
2018-06-25T12:14:56.753Z,28.40
2018-06-25T12:17:25.054Z,28.10
2018-06-25T12:19:53.149Z,28.00
2018-06-25T12:22:21.233Z,28.10
2018-06-25T12:24:49.372Z,28.30
2018-06-25T12:27:17.455Z,28.70
2018-06-25T12:32:13.786Z,29.00
2018-06-25T12:34:42.602Z,29.20
2018-06-25T12:37:10.908Z,29.50
2018-06-25T12:39:45.436Z,29.90
2018-06-25T12:42:19.187Z,30.30
2018-06-25T12:44:52.131Z,30.90
2018-06-25T12:47:22.930Z,31.40
2018-06-25T12:52:18.924Z,31.40
2018-06-25T12:54:47.051Z,31.70
2018-06-25T12:57:15.221Z,31.70
2018-06-25T12:59:43.279Z,31.70
2018-06-25T13:02:11.391Z,32.00
2018-06-25T13:04:39.507Z,32.10
2018-06-25T13:07:07.611Z,32.60
2018-06-25T13:09:35.749Z,33.10
2018-06-25T13:12:03.867Z,33.60
2018-06-25T13:14:31.968Z,33.70
2018-06-25T13:17:00.090Z,33.10
2018-06-25T13:19:28.209Z,32.70
2018-06-25T13:21:56.324Z,32.50
2018-06-25T13:24:24.549Z,33.30
2018-06-25T13:26:52.648Z,33.80
2018-06-25T13:29:20.776Z,34.40
2018-06-25T13:31:48.898Z,34.20
2018-06-25T13:34:17.085Z,33.60
2018-06-25T13:36:45.205Z,33.50
2018-06-25T13:39:13.331Z,33.50
2018-06-25T13:41:41.447Z,33.10
2018-06-25T13:44:09.564Z,32.70
2018-06-25T13:46:38.414Z,32.40
2018-06-25T13:49:07.426Z,31.90
2018-06-25T13:51:35.567Z,31.50
2018-06-25T13:54:03.678Z,31.20
2018-06-25T13:56:31.779Z,31.00
2018-06-25T13:58:59.892Z,30.60
2018-06-25T14:01:27.985Z,30.50
2018-06-25T14:03:56.098Z,30.60
2018-06-25T14:06:24.204Z,30.50
2018-06-25T14:08:59.111Z,30.30
2018-06-25T14:11:27.316Z,30.10
2018-06-25T14:13:55.432Z,29.80
2018-06-25T14:16:23.646Z,29.80
2018-06-25T14:18:51.647Z,30.00
2018-06-25T14:21:19.768Z,30.30
2018-06-25T14:23:53.185Z,30.50
2018-06-25T14:26:21.308Z,30.70
2018-06-25T14:28:49.430Z,31.00
2018-06-25T14:31:22.516Z,30.70
2018-06-25T14:33:56.040Z,30.50
2018-06-25T14:38:52.607Z,30.00
2018-06-25T14:41:20.715Z,29.90
2018-06-25T14:43:48.836Z,29.90
2018-06-25T14:46:16.951Z,29.90
2018-06-25T14:48:45.084Z,29.80
2018-06-25T14:51:13.226Z,29.80
2018-06-25T14:53:41.363Z,29.80
2018-06-25T14:56:09.260Z,30.00
2018-06-25T14:58:37.380Z,30.30
2018-06-25T15:03:33.607Z,30.30
2018-06-25T15:06:01.731Z,30.20
2018-06-25T15:08:29.845Z,30.10
2018-06-25T15:10:57.981Z,30.10
2018-06-25T15:13:26.349Z,29.80
2018-06-25T15:15:55.297Z,29.80
2018-06-25T15:18:23.449Z,29.90
2018-06-25T15:20:51.575Z,29.90
2018-06-25T15:23:19.701Z,30.00
2018-06-25T15:25:47.899Z,30.00
2018-06-25T15:28:16.014Z,30.00
2018-06-25T15:30:52.659Z,29.90
2018-06-25T15:33:20.788Z,30.00
2018-06-25T15:35:49.397Z,30.30
2018-06-25T15:38:17.504Z,30.50
2018-06-25T15:40:45.690Z,30.50
2018-06-25T15:43:13.795Z,30.50
2018-06-25T15:45:42.432Z,30.40
2018-06-25T15:48:10.604Z,30.50
2018-06-25T15:50:38.700Z,30.50
2018-06-25T15:53:07.799Z,30.40
2018-06-25T15:55:35.909Z,30.30
2018-06-25T15:58:04.037Z,30.10
2018-06-25T16:00:32.190Z,30.00
2018-06-25T16:03:00.309Z,29.90
2018-06-25T16:08:33.654Z,29.70
2018-06-25T16:24:22.494Z,29.80
2018-06-25T16:26:50.627Z,30.00
2018-06-25T17:14:43.017Z,23.70
2018-06-25T17:17:11.120Z,24.80
2018-06-25T17:22:07.782Z,27.20
2018-06-25T17:27:03.836Z,28.20
2018-06-25T17:29:31.945Z,28.30
2018-06-25T17:32:00.065Z,28.30
2018-06-25T17:34:28.265Z,28.10
2018-06-25T17:36:56.368Z,28.10
2018-06-25T17:39:24.495Z,28.10
2018-06-25T17:41:52.643Z,28.10
2018-06-25T17:44:20.816Z,28.00
2018-06-25T17:46:49.113Z,28.00
2018-06-25T17:51:45.225Z,27.70
2018-06-25T17:54:13.368Z,27.60
2018-06-25T17:56:41.591Z,27.70
2018-06-25T18:01:37.610Z,27.60
2018-06-25T18:04:05.760Z,27.50
2018-06-25T18:06:33.999Z,27.50
2018-06-25T18:09:02.121Z,27.40
2018-06-25T18:11:30.301Z,27.50
2018-06-25T18:13:58.430Z,27.60
2018-06-25T18:16:27.316Z,27.70
2018-06-25T18:21:23.403Z,27.60
2018-06-25T18:23:51.579Z,27.50
2018-06-25T18:26:19.691Z,27.50
2018-06-25T18:31:15.758Z,27.30
2018-06-25T18:33:43.929Z,27.20
2018-06-25T18:36:12.024Z,27.10
2018-06-25T18:38:40.138Z,26.90
2018-06-25T18:41:08.314Z,26.70
2018-06-25T18:43:36.418Z,26.80
2018-06-25T18:48:32.597Z,26.60
2018-06-25T18:51:00.825Z,26.50
2018-06-25T18:55:56.878Z,26.00
2018-06-25T18:58:24.982Z,26.00
2018-06-25T19:00:53.085Z,26.20
2018-06-25T19:03:21.213Z,26.30
2018-06-25T19:05:49.329Z,26.40
2018-06-25T19:08:17.493Z,26.50
2018-06-25T19:10:45.583Z,26.60
2018-06-25T19:13:13.688Z,26.50
2018-06-25T19:18:09.727Z,26.40
2018-06-25T19:23:05.776Z,26.30
2018-06-25T19:25:33.912Z,26.20
2018-06-25T19:28:02.079Z,26.20
2018-06-25T19:30:30.412Z,26.10
2018-06-25T19:32:58.520Z,26.00
2018-06-25T19:35:26.621Z,26.00
2018-06-25T19:37:54.766Z,25.80
2018-06-25T19:40:23.074Z,25.70
2018-06-25T19:42:51.149Z,25.80
2018-06-25T19:45:19.314Z,25.70
2018-06-25T19:47:47.421Z,25.70
2018-06-25T19:50:15.589Z,25.60
2018-06-25T19:52:43.711Z,25.50
2018-06-25T19:55:11.808Z,25.50
2018-06-25T19:57:39.921Z,25.40
2018-06-25T20:00:08.152Z,25.40
2018-06-25T20:02:36.324Z,25.30
2018-06-25T20:05:04.638Z,25.20
2018-06-25T20:07:32.741Z,25.20
2018-06-25T20:10:00.840Z,25.10
2018-06-25T20:12:29.100Z,25.00
2018-06-25T20:14:57.215Z,25.00
2018-06-25T20:17:25.335Z,25.00
2018-06-25T20:19:53.529Z,24.90
2018-06-25T20:22:21.671Z,24.90
2018-06-25T20:24:49.796Z,24.90
2018-06-25T20:27:17.904Z,24.80
2018-06-25T20:29:46.004Z,24.80
2018-06-25T20:32:14.105Z,24.70
2018-06-25T20:34:42.224Z,24.70
2018-06-25T20:37:10.418Z,24.70
2018-06-25T20:39:38.528Z,24.70
2018-06-25T20:42:06.656Z,24.60
2018-06-25T20:44:34.780Z,24.60
2018-06-25T20:47:03.004Z,24.50
2018-06-25T20:49:31.033Z,24.40
2018-06-25T20:51:59.152Z,24.40
2018-06-25T20:54:27.384Z,24.30
2018-06-25T20:56:55.642Z,24.30
2018-06-25T20:59:23.631Z,24.30
2018-06-25T21:01:51.783Z,24.30
2018-06-25T21:04:19.969Z,24.10
2018-06-25T21:06:48.098Z,24.10
2018-06-25T21:09:16.248Z,24.10
2018-06-25T21:11:44.387Z,24.10
2018-06-25T21:14:13.417Z,24.10
2018-06-25T21:16:41.532Z,24.10
2018-06-25T21:19:09.623Z,24.00
2018-06-25T21:21:37.744Z,23.90
2018-06-25T21:24:06.011Z,23.90
2018-06-25T21:26:34.117Z,23.80
2018-06-25T21:29:02.231Z,23.70
2018-06-25T21:31:31.172Z,23.70
2018-06-25T21:33:59.294Z,23.60
2018-06-25T21:36:27.421Z,23.60
2018-06-25T21:38:55.543Z,23.50
2018-06-25T21:41:23.655Z,23.50
2018-06-25T21:43:51.840Z,23.40
2018-06-25T21:46:19.960Z,23.40
2018-06-25T21:48:48.073Z,23.30
2018-06-25T21:51:16.188Z,23.20
2018-06-25T21:53:44.928Z,23.20
2018-06-25T21:56:13.888Z,23.10
2018-06-25T21:58:42.039Z,23.10
2018-06-25T22:01:11.120Z,23.00
2018-06-25T22:03:39.239Z,23.00
2018-06-25T22:06:07.359Z,22.90
2018-06-25T22:08:35.593Z,22.90
2018-06-25T22:11:03.704Z,22.80
2018-06-25T22:13:32.019Z,22.80
2018-06-25T22:16:00.116Z,22.80
2018-06-25T22:18:28.220Z,22.70
2018-06-25T22:20:56.353Z,22.60
2018-06-25T22:23:25.158Z,22.60
2018-06-25T22:25:53.283Z,22.50
2018-06-25T22:28:21.397Z,22.40
2018-06-25T22:30:49.543Z,22.30
2018-06-25T22:33:17.640Z,22.20
2018-06-25T22:35:45.779Z,22.20
2018-06-25T22:38:13.871Z,22.10
2018-06-25T22:40:41.976Z,22.10
2018-06-25T22:43:10.134Z,22.10
2018-06-25T22:45:38.261Z,22.10
2018-06-25T22:48:06.367Z,22.10
2018-06-25T22:50:34.610Z,22.00
2018-06-25T22:53:02.747Z,22.00
2018-06-25T22:55:32.526Z,21.90
2018-06-25T22:58:01.103Z,21.80
2018-06-25T23:00:29.258Z,21.70
2018-06-25T23:02:57.385Z,21.60
2018-06-25T23:05:25.771Z,21.60
2018-06-25T23:07:53.899Z,21.50
2018-06-25T23:10:22.103Z,21.40
2018-06-25T23:12:50.400Z,21.40
2018-06-25T23:15:18.660Z,21.30
2018-06-25T23:17:46.857Z,21.30
2018-06-25T23:22:42.978Z,21.30
2018-06-25T23:25:11.223Z,21.30
2018-06-25T23:27:39.345Z,21.20
2018-06-25T23:30:07.452Z,21.10
2018-06-25T23:32:36.380Z,21.00
2018-06-25T23:35:04.532Z,21.00
2018-06-25T23:37:32.719Z,21.00
2018-06-25T23:40:00.816Z,20.90
2018-06-25T23:42:28.940Z,20.80
2018-06-25T23:44:57.052Z,20.80
2018-06-25T23:47:25.191Z,20.80
2018-06-25T23:49:53.506Z,20.80
2018-06-25T23:52:21.642Z,20.80
2018-06-25T23:54:49.871Z,20.60
2018-06-25T23:57:17.975Z,20.50
2018-06-25T23:59:46.144Z,20.40
